Time;durP1;ratioP1;P1;durP2;ratioP2;P2;SDS_P1;SDS_P2;PMS_P1;PMS_P2;Temp;Humidity;BMP_temperature;BMP_pressure;BME280_temperature;BME280_humidity;BME280_pressure;Samples;Min_cycle;Max_cycle;Signal;HPM_P1;HPM_P2
2023/04/26 00:01:19;;;;;;;10.20;8.13;;;;;;;12.66;57.66;98807.50;7030929;28;20202;-89
2023/04/26 00:04:41;;;;;;;11.43;8.77;;;;;;;12.07;58.09;98755.66;7032002;28;20241;-89
2023/04/26 00:08:03;;;;;;;12.77;8.23;;;;;;;12.05;58.69;98807.22;7031769;28;20208;-89
2023/04/26 00:11:26;;;;;;;10.20;8.30;;;;;;;12.33;58.23;98812.31;7031199;28;20193;-89
2023/04/26 00:14:54;;;;;;;10.47;8.90;;;;;;;12.52;58.04;98800.53;7028346;28;20221;-90
2023/04/26 00:18:18;;;;;;;9.53;8.33;;;;;;;12.59;56.85;98817.56;7025400;28;20670;-89
2023/04/26 00:21:43;;;;;;;12.10;7.67;;;;;;;12.45;57.35;98815.97;7025145;28;20188;-90
2023/04/26 00:25:06;;;;;;;12.87;8.57;;;;;;;12.16;57.43;98817.34;7024387;28;20234;-90
2023/04/26 00:28:30;;;;;;;12.23;9.67;;;;;;;11.30;60.22;98781.84;7023145;28;20241;-93
2023/04/26 00:31:52;;;;;;;16.50;9.87;;;;;;;11.24;60.01;98766.50;7024896;28;20206;-90
2023/04/26 00:35:14;;;;;;;12.67;8.70;;;;;;;11.66;59.98;98820.03;7025700;28;20564;-90
2023/04/26 00:38:37;;;;;;;11.23;9.03;;;;;;;12.05;59.29;98817.22;7050305;28;20240;-90
2023/04/26 00:41:59;;;;;;;15.53;9.60;;;;;;;11.94;59.19;98815.16;7050289;28;20212;-92
2023/04/26 00:45:25;;;;;;;13.57;10.03;;;;;;;11.55;60.19;98815.22;7051133;28;20217;-90
2023/04/26 00:48:47;;;;;;;15.73;10.30;;;;;;;11.27;60.75;98785.00;7044235;28;20240;-92
2023/04/26 00:52:09;;;;;;;12.23;9.37;;;;;;;11.52;60.58;98812.97;7043892;28;20225;-89
2023/04/26 00:55:34;;;;;;;17.33;10.43;;;;;;;11.49;59.68;98778.28;7051687;28;20225;-89
2023/04/26 00:58:56;;;;;;;14.77;11.87;;;;;;;11.49;59.82;98795.31;7043649;28;20201;-92
2023/04/26 01:02:19;;;;;;;13.77;10.20;;;;;;;11.64;58.56;98762.72;7038012;28;20247;-92
2023/04/26 01:05:41;;;;;;;11.43;8.87;;;;;;;11.87;57.81;98825.19;7037495;28;20307;-91
2023/04/26 01:09:08;;;;;;;15.10;10.10;;;;;;;11.67;58.74;98837.88;7049741;28;20229;-89
2023/04/26 01:12:42;;;;;;;14.77;10.10;;;;;;;11.26;59.40;98840.81;7050562;28;20193;-90
2023/04/26 01:16:10;;;;;;;13.37;8.83;;;;;;;11.47;59.38;98832.50;7047783;28;20240;-90
2023/04/26 01:19:36;;;;;;;13.97;9.20;;;;;;;11.43;59.12;98817.75;7049758;28;20199;-92
2023/04/26 01:23:08;;;;;;;12.37;9.10;;;;;;;11.43;58.53;98798.88;7051230;28;20216;-93
2023/04/26 01:26:32;;;;;;;10.30;9.03;;;;;;;11.42;58.46;98804.47;7051530;28;20205;-92
2023/04/26 01:29:58;;;;;;;11.70;8.27;;;;;;;11.21;57.97;98805.53;7046582;28;20248;-91
2023/04/26 01:33:31;;;;;;;14.83;9.57;;;;;;;10.26;59.55;98752.16;7048238;28;20205;-90
2023/04/26 01:37:15;;;;;;;14.07;9.33;;;;;;;10.41;59.60;98791.41;7047007;28;20212;-90
2023/04/26 01:41:09;;;;;;;13.33;9.83;;;;;;;11.01;58.80;98803.88;7047725;28;20208;-90
2023/04/26 01:44:38;;;;;;;12.33;9.33;;;;;;;10.33;59.44;98807.75;7049127;28;20229;-91
2023/04/26 01:57:59;;;;;;;14.07;10.60;;;;;;;10.97;59.11;98826.91;6855889;28;20214;-96
2023/04/26 02:06:20;;;;;;;12.10;9.27;;;;;;;10.17;59.91;98835.03;6907420;28;20236;-93
2023/04/26 02:09:51;;;;;;;14.30;10.17;;;;;;;9.83;59.37;98737.31;6938984;28;20262;-92
2023/04/26 02:13:25;;;;;;;17.97;10.60;;;;;;;9.55;59.33;98682.75;6939030;28;20207;-92
2023/04/26 02:16:50;;;;;;;15.57;10.73;;;;;;;9.62;58.90;98692.50;6938351;28;20255;-92
2023/04/26 02:20:14;;;;;;;15.23;9.80;;;;;;;10.16;58.48;98809.13;6938107;28;20214;-92
2023/04/26 02:23:42;;;;;;;20.23;10.43;;;;;;;9.13;60.00;98715.25;7002764;28;20248;-92
2023/04/26 02:27:07;;;;;;;18.20;10.20;;;;;;;8.77;60.39;98684.22;7039497;28;20658;-91
2023/04/26 02:31:05;;;;;;;16.20;11.07;;;;;;;9.00;60.24;98664.06;7031520;28;20252;-91
2023/04/26 02:49:37;;;;;;;16.13;9.70;;;;;;;9.37;58.24;98682.47;7038865;28;20233;-91
2023/04/26 02:53:05;;;;;;;14.57;9.70;;;;;;;9.63;59.13;98733.72;7032175;28;20756;-91
2023/04/26 02:56:49;;;;;;;13.40;9.67;;;;;;;9.50;57.77;98685.22;7036909;28;20244;-91
2023/04/26 03:00:19;;;;;;;17.27;11.03;;;;;;;8.83;58.58;98696.88;7025023;28;20198;-92
2023/04/26 03:04:02;;;;;;;16.67;11.33;;;;;;;9.30;60.18;98795.44;7011315;28;20234;-91
2023/04/26 03:07:25;;;;;;;14.17;11.27;;;;;;;9.09;59.30;98701.38;7008055;28;20205;-91
2023/04/26 03:11:16;;;;;;;14.53;10.67;;;;;;;9.55;59.17;98769.72;7007639;28;20225;-91
2023/04/26 03:19:09;;;;;;;15.87;11.00;;;;;;;9.66;58.78;98755.69;7008517;28;20217;-91
2023/04/26 03:22:48;;;;;;;17.83;11.13;;;;;;;8.97;59.07;98664.50;7010805;28;20202;-91
2023/04/26 03:26:37;;;;;;;15.73;11.17;;;;;;;9.47;58.88;98708.00;7008188;28;20241;-91
2023/04/26 03:31:05;;;;;;;12.53;10.10;;;;;;;9.19;57.04;98691.09;7029892;28;20224;-91
2023/04/26 03:39:15;;;;;;;11.43;9.00;;;;;;;9.81;58.07;98829.06;6878573;28;20214;-91
2023/04/26 03:50:56;;;;;;;16.53;10.63;;;;;;;8.73;59.07;98686.44;6920229;28;20233;-92
2023/04/26 04:03:17;;;;;;;15.23;10.17;;;;;;;9.17;58.79;98806.09;6927984;28;20212;-89
2023/04/26 04:07:00;;;;;;;15.90;10.47;;;;;;;8.99;58.75;98792.31;6926330;28;20201;-89
2023/04/26 04:11:00;;;;;;;13.83;10.87;;;;;;;9.54;58.88;98839.88;6977321;28;20688;-90
2023/04/26 04:23:19;;;;;;;18.83;11.80;;;;;;;9.24;58.19;98817.75;7023473;28;20394;-89
2023/04/26 04:31:06;;;;;;;14.17;9.47;;;;;;;9.21;58.26;98814.63;7028791;28;20217;-89
2023/04/26 04:35:12;;;;;;;11.53;8.73;;;;;;;9.48;57.56;98848.75;7020967;28;20238;-89
2023/04/26 04:39:12;;;;;;;15.23;11.00;;;;;;;8.82;58.69;98864.53;6926611;28;20224;-89
2023/04/26 04:42:50;;;;;;;16.97;10.37;;;;;;;8.65;60.29;98863.97;7023956;28;20213;-89
2023/04/26 04:59:05;;;;;;;14.77;10.20;;;;;;;9.24;57.98;98815.06;6991288;28;20206;-89
2023/04/26 05:02:55;;;;;;;17.10;10.40;;;;;;;8.77;58.98;98762.16;7014135;28;20205;-90
2023/04/26 05:49:38;;;;;;;12.80;10.30;;;;;;;11.55;53.85;98839.53;6399736;30;20342;-90
2023/04/26 05:53:20;;;;;;;14.27;9.90;;;;;;;12.61;52.28;98869.53;6489178;30;20203;-89
2023/04/26 05:56:42;;;;;;;12.33;9.97;;;;;;;12.33;49.94;98771.75;6582719;30;20302;-90
2023/04/26 06:00:05;;;;;;;12.50;9.13;;;;;;;11.42;53.55;98813.41;6614410;30;20219;-89
2023/04/26 06:03:28;;;;;;;17.97;10.50;;;;;;;11.71;54.52;98879.66;6625414;29;20214;-89
2023/04/26 06:06:50;;;;;;;15.57;10.07;;;;;;;11.77;54.30;98839.13;6761643;29;20862;-88
2023/04/26 06:10:23;;;;;;;10.87;9.57;;;;;;;12.45;53.49;98897.09;6762887;29;20252;-93
2023/04/26 06:18:36;;;;;;;13.77;10.37;;;;;;;12.95;50.93;98759.06;7007113;28;20214;-90
2023/04/26 06:31:09;;;;;;;13.87;10.30;;;;;;;12.57;50.81;98781.78;6787832;29;20235;-90
2023/04/26 06:39:06;;;;;;;14.30;10.50;;;;;;;14.22;48.05;98915.34;6802659;29;20210;-88
2023/04/26 06:42:33;;;;;;;14.17;10.83;;;;;;;13.83;48.59;98887.81;6787220;29;20214;-87
2023/04/26 06:46:00;;;;;;;13.73;11.33;;;;;;;13.54;48.35;98809.94;6787925;29;20267;-88
2023/04/26 06:49:25;;;;;;;15.03;10.97;;;;;;;13.16;50.39;98912.94;6788758;29;20620;-89
2023/04/26 06:52:47;;;;;;;16.17;11.53;;;;;;;12.96;51.44;98847.31;6787438;29;20255;-86
2023/04/26 06:56:12;;;;;;;16.50;11.20;;;;;;;14.01;49.95;98893.25;6803019;29;20358;-86
2023/04/26 06:59:34;;;;;;;13.43;10.93;;;;;;;13.64;50.01;98892.34;6845902;28;20216;-86
2023/04/26 07:02:55;;;;;;;13.93;9.90;;;;;;;12.75;51.46;98881.97;6866195;28;20209;-85
2023/04/26 07:06:17;;;;;;;13.60;10.47;;;;;;;14.06;49.31;98915.94;6919607;28;20253;-86
2023/04/26 07:09:38;;;;;;;13.50;10.77;;;;;;;13.54;50.59;98867.66;7025217;28;20231;-86
2023/04/26 07:13:01;;;;;;;11.73;9.07;;;;;;;14.38;46.96;98878.66;6987520;28;20238;-86
2023/04/26 07:16:23;;;;;;;11.73;9.07;;;;;;;15.06;45.31;98896.31;7000197;28;20241;-86
2023/04/26 07:19:45;;;;;;;12.23;8.17;;;;;;;14.92;44.02;98870.44;7005877;28;20212;-86
2023/04/26 07:23:06;;;;;;;10.47;7.37;;;;;;;15.36;42.73;98887.09;7002764;28;20195;-86
2023/04/26 07:26:28;;;;;;;7.90;7.07;;;;;;;15.27;42.97;98888.47;6995188;28;20254;-86
2023/04/26 07:29:53;;;;;;;9.10;6.97;;;;;;;15.94;41.89;98887.97;6994418;28;20630;-86
2023/04/26 07:33:15;;;;;;;9.57;7.30;;;;;;;17.06;39.36;98876.44;6999905;28;20198;-86
2023/04/26 07:36:36;;;;;;;11.77;6.70;;;;;;;16.92;40.06;98877.84;7001297;28;20210;-86
2023/04/26 07:39:58;;;;;;;9.67;7.73;;;;;;;18.15;39.33;98876.63;6994114;28;20198;-84
2023/04/26 07:43:20;;;;;;;9.27;5.73;;;;;;;17.76;38.87;98881.22;6999889;28;20198;-87
2023/04/26 07:46:43;;;;;;;7.63;5.17;;;;;;;15.78;36.54;98831.59;7004112;28;20204;-86
2023/04/26 07:50:09;;;;;;;6.83;4.70;;;;;;;16.63;38.93;98870.72;6995366;28;20220;-85
2023/04/26 07:53:31;;;;;;;10.53;4.93;;;;;;;16.48;37.82;98873.97;6982204;28;20253;-84
2023/04/26 07:56:53;;;;;;;6.83;4.50;;;;;;;17.28;35.82;98866.50;6977820;28;20295;-88
2023/04/26 08:00:16;;;;;;;7.07;4.00;;;;;;;18.19;33.46;98864.13;6977409;28;20213;-89
2023/04/26 08:03:39;;;;;;;7.40;3.97;;;;;;;18.90;32.12;98872.16;6976073;28;20230;-88
2023/04/26 08:07:01;;;;;;;8.43;5.40;;;;;;;18.95;32.64;98874.94;6987471;28;20280;-89
2023/04/26 08:10:23;;;;;;;6.33;4.30;;;;;;;18.91;31.01;98876.53;7000178;28;20228;-87
2023/04/26 08:13:45;;;;;;;5.80;3.43;;;;;;;17.66;31.00;98889.28;7003967;28;20320;-87
2023/04/26 08:17:07;;;;;;;9.07;4.17;;;;;;;17.25;31.86;98786.06;7005483;28;20213;-87
2023/04/26 08:20:31;;;;;;;4.27;3.40;;;;;;;16.76;30.83;98868.53;6992546;28;20201;-87
2023/04/26 08:23:52;;;;;;;7.17;3.60;;;;;;;17.32;31.18;98804.97;7004039;28;20603;-87
2023/04/26 08:27:14;;;;;;;6.83;4.03;;;;;;;17.20;31.34;98880.50;7002242;28;20313;-87
2023/04/26 08:30:36;;;;;;;5.63;3.57;;;;;;;17.82;31.17;98893.88;7005059;28;20229;-87
2023/04/26 08:33:57;;;;;;;5.63;3.60;;;;;;;18.67;29.35;98883.34;7004176;28;20245;-86
2023/04/26 08:37:21;;;;;;;6.43;3.87;;;;;;;16.43;32.75;98873.84;7004036;28;20288;-87
2023/04/26 08:40:43;;;;;;;6.50;3.97;;;;;;;17.57;32.41;98879.84;7004199;28;20210;-88
2023/04/26 08:44:07;;;;;;;7.20;3.90;;;;;;;17.75;31.97;98889.69;6986631;28;20311;-87
2023/04/26 08:47:30;;;;;;;5.97;3.80;;;;;;;18.79;30.11;98884.03;6979092;28;20206;-85
2023/04/26 08:50:52;;;;;;;5.67;3.77;;;;;;;15.39;33.25;98888.53;6976702;28;20227;-86
2023/04/26 08:54:16;;;;;;;6.80;4.00;;;;;;;17.20;32.39;98891.41;6976592;28;20339;-85
2023/04/26 08:57:39;;;;;;;6.30;3.60;;;;;;;19.28;29.52;98894.72;6977679;28;20205;-82
2023/04/26 09:01:02;;;;;;;7.47;4.00;;;;;;;19.35;30.00;98881.66;6981469;28;20209;-84
2023/04/26 09:04:24;;;;;;;7.53;3.97;;;;;;;19.17;29.96;98873.81;6994236;28;20237;-85
2023/04/26 09:07:48;;;;;;;7.37;3.83;;;;;;;18.70;30.23;98870.00;7003404;28;20198;-86
2023/04/26 09:11:11;;;;;;;7.97;4.60;;;;;;;18.58;31.14;98855.66;7005602;28;20237;-83
2023/04/26 09:14:32;;;;;;;5.27;3.77;;;;;;;18.33;31.14;98865.47;7007435;28;20317;-83
2023/04/26 09:17:54;;;;;;;7.00;4.27;;;;;;;18.54;32.12;98862.75;7012492;28;20279;-85
2023/04/26 09:21:18;;;;;;;6.10;4.30;;;;;;;18.75;30.94;98855.63;6985296;28;20210;-82
2023/04/26 09:24:51;;;;;;;5.33;4.00;;;;;;;17.91;32.60;98873.28;6982818;28;20219;-83
2023/04/26 09:28:21;;;;;;;5.33;3.70;;;;;;;18.87;32.11;98881.69;6981851;28;20202;-83
2023/04/26 09:31:44;;;;;;;8.00;4.10;;;;;;;19.10;31.07;98865.00;6981630;28;20308;-83
2023/04/26 09:35:07;;;;;;;8.17;4.10;;;;;;;18.28;30.71;98832.63;6990005;28;20272;-83
2023/04/26 09:38:29;;;;;;;6.03;4.00;;;;;;;18.81;31.46;98849.13;7000015;28;20206;-84
2023/04/26 09:41:50;;;;;;;7.07;4.40;;;;;;;18.42;32.62;98858.47;6982518;28;20299;-84
2023/04/26 09:45:16;;;;;;;9.23;4.80;;;;;;;17.97;31.49;98852.34;7002629;28;20225;-85
2023/04/26 09:48:37;;;;;;;5.63;4.47;;;;;;;18.42;31.76;98848.38;7009733;28;20293;-82
2023/04/26 09:52:00;;;;;;;5.97;4.30;;;;;;;18.55;32.56;98822.59;7012786;28;20249;-84
2023/04/26 09:55:31;;;;;;;5.57;4.27;;;;;;;18.81;30.58;98840.94;7006005;28;20214;-84
2023/04/26 09:58:57;;;;;;;23.10;17.07;;;;;;;17.68;31.84;98816.22;7004303;28;20232;-86
2023/04/26 10:02:22;;;;;;;37.63;23.10;;;;;;;18.92;32.18;98848.16;7003215;28;20255;-85
2023/04/26 10:05:43;;;;;;;7.87;4.67;;;;;;;16.91;33.33;98849.75;7004244;28;20249;-87
2023/04/26 10:09:08;;;;;;;9.50;4.37;;;;;;;16.51;33.37;98848.97;6994419;28;20302;-85
2023/04/26 10:12:30;;;;;;;6.10;4.00;;;;;;;16.79;32.79;98854.44;6992537;28;20228;-83
2023/04/26 10:15:52;;;;;;;6.73;4.13;;;;;;;16.98;32.69;98855.88;7003019;28;20355;-86
2023/04/26 10:19:15;;;;;;;5.67;4.07;;;;;;;17.03;33.14;98853.25;7007730;28;20238;-84
2023/04/26 10:22:40;;;;;;;6.73;4.00;;;;;;;17.40;32.49;98813.59;7007608;28;20318;-85
2023/04/26 10:26:02;;;;;;;8.60;5.60;;;;;;;17.19;33.30;98838.00;7008412;28;20701;-84
2023/04/26 10:29:26;;;;;;;8.20;4.00;;;;;;;17.08;31.29;98828.00;7007500;28;20253;-85
2023/04/26 10:33:22;;;;;;;5.93;3.77;;;;;;;16.67;33.15;98841.94;7007555;28;20228;-84
2023/04/26 10:37:09;;;;;;;8.17;4.40;;;;;;;16.54;32.57;98848.50;7015939;28;20282;-85
2023/04/26 10:40:32;;;;;;;6.07;3.90;;;;;;;17.68;31.81;98807.22;7009482;28;20198;-86
2023/04/26 10:43:54;;;;;;;5.53;4.00;;;;;;;18.31;30.51;98840.28;7009013;28;20249;-85
2023/04/26 10:47:28;;;;;;;6.17;3.93;;;;;;;19.01;29.55;98775.53;7008409;28;20198;-85
2023/04/26 10:51:08;;;;;;;10.53;4.60;;;;;;;18.52;29.23;98834.03;7008420;28;20711;-86
2023/04/26 10:58:28;;;;;;;5.40;3.70;;;;;;;18.06;29.96;98750.75;7080319;27;20556;-92
2023/04/26 11:01:49;;;;;;;6.23;3.90;;;;;;;17.67;29.20;98797.38;7080024;27;20218;-92
2023/04/26 11:05:12;;;;;;;5.77;3.70;;;;;;;19.00;27.91;98752.03;7079744;28;20223;-92
2023/04/26 11:08:35;;;;;;;6.17;3.80;;;;;;;19.62;28.54;98783.16;7080122;27;20689;-93
2023/04/26 11:11:57;;;;;;;5.87;4.03;;;;;;;19.25;28.15;98793.28;7080140;27;20204;-92
2023/04/26 11:15:20;;;;;;;8.93;4.63;;;;;;;18.38;30.01;98668.97;7079397;27;20230;-93
2023/04/26 11:18:43;;;;;;;7.10;4.47;;;;;;;19.81;29.70;98809.03;7079926;27;20211;-93
2023/04/26 11:22:09;;;;;;;10.43;4.93;;;;;;;18.44;30.16;98714.34;7078808;27;20237;-89
2023/04/26 11:25:31;;;;;;;5.57;3.90;;;;;;;19.63;30.79;98807.53;7079436;27;20200;-89
2023/04/26 11:28:53;;;;;;;6.93;4.20;;;;;;;18.59;29.63;98800.00;7079121;27;20203;-92
2023/04/26 11:32:17;;;;;;;6.50;4.73;;;;;;;18.40;29.83;98721.41;7077647;27;20208;-90
2023/04/26 11:35:39;;;;;;;4.70;3.73;;;;;;;19.24;28.65;98765.13;7078718;27;20219;-90
2023/04/26 11:39:01;;;;;;;5.50;4.10;;;;;;;18.57;28.51;98742.06;7078829;27;20512;-91
2023/04/26 11:42:25;;;;;;;7.93;3.87;;;;;;;17.24;30.69;98734.53;7078833;27;20668;-91
2023/04/26 11:45:47;;;;;;;5.27;4.20;;;;;;;17.19;30.40;98770.72;7079208;27;20548;-91
2023/04/26 11:49:13;;;;;;;8.93;4.67;;;;;;;17.69;30.21;98692.41;7106202;27;20195;-90
2023/04/26 11:52:35;;;;;;;8.37;4.67;;;;;;;18.65;29.70;98766.19;7050335;27;20193;-92
2023/04/26 11:56:04;;;;;;;8.03;3.67;;;;;;;18.51;28.78;98712.25;7057710;27;20262;-92
2023/04/26 11:59:26;;;;;;;6.80;3.97;;;;;;;19.63;28.35;98752.00;7078223;27;20209;-91
2023/04/26 12:02:48;;;;;;;5.93;4.03;;;;;;;18.94;27.87;98714.81;7077829;27;20214;-90
2023/04/26 12:06:11;;;;;;;7.03;3.67;;;;;;;18.87;27.72;98716.97;7079493;27;20228;-88
2023/04/26 12:09:33;;;;;;;8.90;3.87;;;;;;;17.34;28.76;98626.50;7060073;27;20204;-86
2023/04/26 12:12:56;;;;;;;4.80;3.90;;;;;;;19.99;26.77;98701.84;7065001;28;20201;-93
2023/04/26 12:16:17;;;;;;;4.20;3.40;;;;;;;18.56;28.18;98625.72;7042421;28;20224;-93
2023/04/26 12:19:40;;;;;;;5.13;3.50;;;;;;;20.08;26.76;98709.31;7060023;27;20215;-93
2023/04/26 12:23:05;;;;;;;5.27;3.87;;;;;;;19.97;27.08;98633.69;7043420;27;20557;-93
2023/04/26 12:26:44;;;;;;;7.37;4.00;;;;;;;20.13;26.66;98623.63;7031353;28;20677;-89
2023/04/26 12:34:28;;;;;;;6.53;4.27;;;;;;;18.92;28.90;98736.94;7035903;28;20193;-84
2023/04/26 12:37:52;;;;;;;5.83;3.63;;;;;;;18.81;29.45;98704.34;7057685;27;20655;-88
2023/04/26 12:41:16;;;;;;;6.03;4.47;;;;;;;19.26;28.63;98704.69;7058295;28;20208;-90
2023/04/26 12:44:37;;;;;;;9.93;4.40;;;;;;;19.19;28.34;98698.63;7059149;27;20211;-92
2023/04/26 12:48:06;;;;;;;6.07;3.83;;;;;;;18.17;29.25;98610.59;7061645;28;20215;-92
2023/04/26 12:51:28;;;;;;;9.37;3.80;;;;;;;18.71;27.88;98612.22;7059869;27;20647;-90
2023/04/26 12:54:50;;;;;;;5.50;3.83;;;;;;;19.09;27.49;98672.03;7058491;27;20312;-80
2023/04/26 12:58:14;;;;;;;4.40;3.27;;;;;;;18.76;28.22;98688.69;7029495;28;20229;-89
2023/04/26 13:01:36;;;;;;;5.50;3.63;;;;;;;19.16;27.75;98663.63;7029628;28;20201;-88
2023/04/26 13:04:57;;;;;;;4.97;3.70;;;;;;;17.85;29.29;98634.25;7029295;28;20318;-89
2023/04/26 13:08:19;;;;;;;7.57;3.83;;;;;;;17.79;29.55;98634.44;7038988;28;20197;-89
2023/04/26 13:11:41;;;;;;;6.40;3.83;;;;;;;18.52;29.73;98722.88;7057402;27;20200;-86
2023/04/26 13:15:04;;;;;;;5.63;3.83;;;;;;;19.85;27.50;98717.91;7056191;28;20323;-84
2023/04/26 13:18:26;;;;;;;5.13;3.50;;;;;;;20.50;27.71;98718.19;7044526;28;20217;-85
2023/04/26 13:21:51;;;;;;;6.73;3.77;;;;;;;18.80;28.95;98659.78;7027168;28;20209;-85
2023/04/26 13:25:14;;;;;;;9.07;3.97;;;;;;;18.36;28.81;98625.56;7029204;28;20676;-85
2023/04/26 13:28:36;;;;;;;6.00;3.53;;;;;;;19.59;29.40;98686.06;7042554;28;20606;-85
2023/04/26 13:31:59;;;;;;;4.53;3.47;;;;;;;19.69;28.11;98664.22;7039671;27;20205;-85
2023/04/26 13:35:21;;;;;;;4.20;3.37;;;;;;;20.03;28.10;98709.25;7035371;27;20228;-85
2023/04/26 13:38:43;;;;;;;4.93;3.47;;;;;;;19.31;28.30;98645.44;7026298;28;20260;-86
2023/04/26 13:42:05;;;;;;;5.60;3.60;;;;;;;19.89;27.79;98690.84;7026166;28;20213;-85
2023/04/26 13:45:27;;;;;;;4.60;3.40;;;;;;;20.33;28.43;98692.13;7029086;28;20331;-85
2023/04/26 13:48:50;;;;;;;7.80;3.87;;;;;;;20.15;27.62;98681.66;7025733;28;20622;-85
2023/04/26 13:52:12;;;;;;;5.80;3.80;;;;;;;18.98;27.69;98688.63;7027815;28;20205;-85
2023/04/26 13:55:33;;;;;;;7.70;3.70;;;;;;;18.66;28.94;98685.91;7053635;28;20216;-87
2023/04/26 13:58:56;;;;;;;6.53;4.17;;;;;;;18.27;29.46;98639.91;7054619;28;20220;-89
2023/04/26 14:02:18;;;;;;;4.03;3.70;;;;;;;18.15;29.50;98700.09;7054561;27;20200;-87
2023/04/26 14:05:41;;;;;;;6.77;4.03;;;;;;;17.80;29.24;98660.66;7055643;28;20204;-89
2023/04/26 14:09:03;;;;;;;6.47;3.77;;;;;;;17.24;29.90;98645.47;7057191;27;20196;-89
2023/04/26 14:12:25;;;;;;;5.90;3.90;;;;;;;16.21;30.34;98567.31;7056879;28;20619;-89
2023/04/26 14:15:47;;;;;;;7.50;4.13;;;;;;;16.04;30.73;98602.63;7060534;27;20218;-89
2023/04/26 14:19:09;;;;;;;6.50;3.80;;;;;;;17.48;30.15;98687.78;7061099;28;20576;-89
2023/04/26 14:22:33;;;;;;;4.27;3.87;;;;;;;17.50;29.31;98613.91;7054145;28;20189;-89
2023/04/26 14:25:54;;;;;;;4.50;3.73;;;;;;;17.20;29.94;98548.94;7046506;28;20200;-88
2023/04/26 14:29:16;;;;;;;5.80;3.83;;;;;;;17.99;29.94;98548.19;7041347;27;20241;-90
2023/04/26 14:32:38;;;;;;;7.33;3.70;;;;;;;18.96;28.41;98636.13;7040000;27;20208;-89
2023/04/26 14:36:00;;;;;;;6.87;3.50;;;;;;;18.84;28.92;98654.63;7043187;28;20212;-89
2023/04/26 14:39:23;;;;;;;8.50;4.27;;;;;;;18.86;30.30;98683.34;7041293;27;20204;-85
2023/04/26 14:42:45;;;;;;;8.07;4.93;;;;;;;18.69;29.55;98621.75;7055334;27;20208;-86
2023/04/26 14:46:07;;;;;;;7.67;4.03;;;;;;;18.65;28.80;98645.19;7055510;28;20244;-91
2023/04/26 14:49:31;;;;;;;6.20;3.97;;;;;;;16.98;30.33;98522.78;7055430;28;20200;-89
2023/04/26 14:52:53;;;;;;;6.63;3.93;;;;;;;18.07;29.71;98653.31;7041863;28;20568;-88
2023/04/26 14:56:16;;;;;;;7.87;4.10;;;;;;;17.52;29.42;98585.31;7028322;28;20229;-91
2023/04/26 14:59:41;;;;;;;7.43;3.93;;;;;;;16.95;31.20;98561.41;7030207;28;20240;-87
2023/04/26 15:03:02;;;;;;;5.60;4.03;;;;;;;18.50;29.71;98708.69;7032532;28;20292;-88
2023/04/26 15:06:25;;;;;;;5.10;4.13;;;;;;;18.23;29.21;98655.94;7027285;28;20233;-88
2023/04/26 15:09:50;;;;;;;7.47;4.27;;;;;;;18.91;28.81;98652.50;7026600;28;20254;-88
2023/04/26 15:13:13;;;;;;;5.03;3.97;;;;;;;17.77;29.53;98598.44;7026636;28;20212;-88
2023/04/26 15:16:35;;;;;;;6.57;4.20;;;;;;;17.41;29.62;98610.00;7027255;28;20221;-88
2023/04/26 15:20:00;;;;;;;8.57;4.57;;;;;;;16.80;30.56;98545.66;7026873;28;20208;-88
2023/04/26 15:23:25;;;;;;;8.57;4.50;;;;;;;18.32;29.89;98639.97;7026417;28;20278;-85
2023/04/26 15:26:47;;;;;;;10.27;4.03;;;;;;;19.40;28.73;98621.16;7037810;28;20663;-87
2023/04/26 15:30:13;;;;;;;5.10;4.17;;;;;;;19.33;27.43;98667.84;7034518;27;20228;-89
2023/04/26 15:33:35;;;;;;;6.63;4.00;;;;;;;19.22;28.18;98624.34;7030079;28;20202;-88
2023/04/26 15:37:00;;;;;;;5.20;4.13;;;;;;;18.19;28.37;98520.28;7026499;28;20229;-87
2023/04/26 15:40:23;;;;;;;9.23;4.57;;;;;;;19.07;28.78;98666.03;7026132;28;20198;-88
2023/04/26 15:43:45;;;;;;;6.97;3.80;;;;;;;18.58;28.56;98582.59;7030159;28;20209;-89
2023/04/26 15:47:08;;;;;;;4.73;4.10;;;;;;;18.25;28.92;98541.06;7032631;28;20198;-88
2023/04/26 15:50:30;;;;;;;5.23;3.87;;;;;;;17.84;30.01;98629.91;7032152;28;20647;-88
2023/04/26 15:53:52;;;;;;;3.80;3.50;;;;;;;17.50;30.62;98583.94;7031611;28;20547;-89
2023/04/26 15:57:14;;;;;;;5.03;3.83;;;;;;;17.12;31.09;98571.19;7031421;28;20225;-89
2023/04/26 16:04:55;;;;;;;6.23;3.67;;;;;;;17.59;30.65;98677.84;7059716;28;20169;-90
2023/04/26 16:08:18;;;;;;;6.93;3.80;;;;;;;17.94;30.71;98621.84;7060860;28;20631;-90
2023/04/26 16:12:16;;;;;;;6.87;3.90;;;;;;;18.44;30.37;98657.84;7060277;27;20208;-87
2023/04/26 16:15:38;;;;;;;7.33;4.37;;;;;;;17.37;31.60;98646.97;7058748;28;20212;-90
2023/04/26 16:19:02;;;;;;;15.10;8.27;;;;;;;16.36;32.43;98590.16;7059820;28;20228;-90
2023/04/26 16:22:27;;;;;;;15.93;7.43;;;;;;;16.65;32.03;98480.13;7064064;28;20203;-89
2023/04/26 16:25:48;;;;;;;7.40;5.00;;;;;;;17.75;31.80;98600.59;7065919;28;20195;-83
2023/04/26 16:29:10;;;;;;;6.63;4.53;;;;;;;18.20;30.84;98527.38;7057864;27;20223;-84
2023/04/26 16:32:32;;;;;;;7.93;4.07;;;;;;;18.98;29.90;98584.81;7057817;28;20684;-84
2023/04/26 16:35:54;;;;;;;6.47;4.00;;;;;;;19.93;29.66;98649.00;7058232;28;20208;-81
2023/04/26 16:39:18;;;;;;;3.63;3.30;;;;;;;18.68;30.73;98620.06;7057634;28;20228;-81
2023/04/26 16:42:43;;;;;;;11.70;3.87;;;;;;;17.88;29.56;98543.72;7057126;28;20722;-81
2023/04/26 16:46:05;;;;;;;6.33;3.60;;;;;;;19.26;29.48;98663.69;7046283;28;20233;-84
2023/04/26 16:49:29;;;;;;;6.27;3.77;;;;;;;19.04;28.51;98595.47;7045402;28;20205;-85
2023/04/26 16:52:50;;;;;;;4.57;3.53;;;;;;;17.55;30.44;98557.56;7050004;28;20197;-85
2023/04/26 16:56:21;;;;;;;4.97;3.70;;;;;;;18.61;30.28;98627.66;7057746;28;20211;-87
2023/04/26 16:59:43;;;;;;;8.10;3.63;;;;;;;17.98;30.96;98669.31;7057924;27;20220;-89
2023/04/26 17:03:14;;;;;;;6.07;3.70;;;;;;;18.58;30.30;98674.63;7058158;27;20242;-88
2023/04/26 17:06:37;;;;;;;7.40;4.60;;;;;;;18.08;30.21;98492.09;7060238;27;20228;-86
2023/04/26 17:09:59;;;;;;;5.70;3.70;;;;;;;19.03;30.19;98653.13;7057533;27;20204;-88
2023/04/26 17:13:28;;;;;;;6.97;3.63;;;;;;;18.21;29.95;98614.47;7057582;28;20197;-88
2023/04/26 17:16:50;;;;;;;8.27;5.77;;;;;;;18.43;29.63;98577.03;7058052;28;20638;-88
2023/04/26 17:20:15;;;;;;;9.33;5.73;;;;;;;18.59;30.29;98627.13;7057546;28;20205;-88
2023/04/26 17:23:36;;;;;;;5.30;4.17;;;;;;;18.82;30.84;98675.94;7056774;28;20215;-85
2023/04/26 17:26:58;;;;;;;7.03;3.57;;;;;;;18.73;29.88;98677.47;7057385;28;20211;-87
2023/04/26 17:30:37;;;;;;;4.70;2.90;;;;;;;18.14;31.00;98632.94;7056911;28;20712;-90
2023/04/26 17:33:59;;;;;;;3.17;2.60;;;;;;;17.47;30.71;98502.69;6942653;28;20214;-86
2023/04/26 17:37:27;;;;;;;5.73;3.20;;;;;;;18.13;30.86;98608.63;6942190;28;20337;-87
2023/04/26 17:41:02;;;;;;;5.10;2.90;;;;;;;18.23;31.09;98647.75;6942179;28;20198;-88
2023/04/26 17:44:27;;;;;;;3.80;2.93;;;;;;;18.23;30.98;98663.31;6913051;28;20206;-87
2023/04/26 17:47:58;;;;;;;6.77;3.30;;;;;;;17.84;31.34;98650.88;6941704;28;20700;-86
2023/04/26 17:51:20;;;;;;;6.53;3.30;;;;;;;17.68;31.31;98616.34;6941496;28;20203;-85
2023/04/26 17:54:42;;;;;;;4.00;3.00;;;;;;;17.39;30.97;98601.25;6941327;28;20215;-86
2023/04/26 17:58:04;;;;;;;3.90;3.40;;;;;;;17.69;31.67;98650.72;6944508;28;20223;-89
2023/04/26 18:01:29;;;;;;;3.80;2.83;;;;;;;16.92;32.40;98579.06;6941439;28;20416;-84
2023/04/26 18:04:52;;;;;;;4.37;2.73;;;;;;;17.49;32.03;98664.91;6940085;28;20230;-87
2023/04/26 18:08:25;;;;;;;5.13;3.00;;;;;;;17.16;32.03;98623.25;6941357;28;20210;-86
2023/04/26 18:11:50;;;;;;;3.30;3.00;;;;;;;17.66;32.31;98668.41;7036348;28;20203;-86
2023/04/26 18:15:12;;;;;;;6.30;2.97;;;;;;;17.02;32.32;98624.69;7041667;28;20242;-87
2023/04/26 18:18:34;;;;;;;6.73;3.10;;;;;;;16.57;32.67;98618.56;7026559;28;20223;-85
2023/04/26 18:21:57;;;;;;;4.70;3.47;;;;;;;16.50;33.54;98590.66;7026858;28;20529;-84
2023/04/26 18:25:19;;;;;;;7.20;3.20;;;;;;;16.53;33.38;98650.88;7026427;28;20203;-85
2023/04/26 18:28:43;;;;;;;5.40;3.30;;;;;;;15.93;33.93;98579.03;7029932;28;20217;-91
2023/04/26 18:32:05;;;;;;;4.63;3.30;;;;;;;16.86;32.97;98664.47;7026693;28;20231;-86
2023/04/26 18:35:27;;;;;;;6.33;2.73;;;;;;;16.96;32.68;98721.00;7039476;28;20233;-87
2023/04/26 18:38:50;;;;;;;3.67;2.60;;;;;;;17.24;33.88;98719.03;7055520;28;20224;-85